Аэропорт: Жуляны. Киев

ICAO: UKKK

METAR:
2018/11/19 10:00
UKKK 191000Z 06003MPS 7000 NSC M00/M06 Q1026 R08/190060 NOSIG
METAR:
2018/11/19 06:15
TAF TAF UKKK 190507Z 1906/2006 06003G08MPS 6000 SCT010 BKN030 TX00/1912Z TNM04/2004Z 
      TEMPO 1906/1908 1700 BR SCT006 
      TEMPO 1915/2006 2000 -SN BR OVC007